sensor_id;sensor_type;location;lat;lon;timestamp;pressure;altitude;pressure_sealevel;temperature;humidity
54308;BME280;40208;39.778;2.710;2023-04-26T00:00:15;101084.06;;;17.47;100.00
54308;BME280;40208;39.778;2.710;2023-04-26T00:03:01;101251.72;;;18.34;100.00
54308;BME280;40208;39.778;2.710;2023-04-26T00:05:47;101168.38;;;17.70;100.00
54308;BME280;40208;39.778;2.710;2023-04-26T00:08:32;101249.75;;;18.11;100.00
54308;BME280;40208;39.778;2.710;2023-04-26T00:11:17;101105.84;;;17.30;100.00
54308;BME280;40208;39.778;2.710;2023-04-26T00:14:02;101198.97;;;17.68;100.00
54308;BME280;40208;39.778;2.710;2023-04-26T00:16:46;101099.59;;;17.16;100.00
54308;BME280;40208;39.778;2.710;2023-04-26T00:19:31;101168.56;;;17.54;100.00
54308;BME280;40208;39.778;2.710;2023-04-26T00:22:16;101219.63;;;17.80;100.00
54308;BME280;40208;39.778;2.710;2023-04-26T00:25:01;100939.81;;;16.07;100.00
54308;BME280;40208;39.778;2.710;2023-04-26T00:27:46;101185.44;;;17.69;100.00
54308;BME280;40208;39.778;2.710;2023-04-26T00:30:30;101217.72;;;17.82;100.00
54308;BME280;40208;39.778;2.710;2023-04-26T00:33:17;101207.31;;;17.90;100.00
54308;BME280;40208;39.778;2.710;2023-04-26T00:36:02;101200.53;;;17.97;100.00
54308;BME280;40208;39.778;2.710;2023-04-26T00:38:47;101160.66;;;17.66;100.00
54308;BME280;40208;39.778;2.710;2023-04-26T00:41:32;101196.25;;;17.82;100.00
54308;BME280;40208;39.778;2.710;2023-04-26T00:44:17;101130.84;;;17.30;100.00
54308;BME280;40208;39.778;2.710;2023-04-26T00:47:02;101033.88;;;16.57;100.00
54308;BME280;40208;39.778;2.710;2023-04-26T00:49:47;101024.47;;;16.64;100.00
54308;BME280;40208;39.778;2.710;2023-04-26T00:52:32;101049.34;;;16.93;100.00
54308;BME280;40208;39.778;2.710;2023-04-26T00:55:17;101155.91;;;17.56;100.00
54308;BME280;40208;39.778;2.710;2023-04-26T00:58:04;100969.72;;;16.41;100.00
54308;BME280;40208;39.778;2.710;2023-04-26T01:00:48;101116.31;;;17.07;100.00
54308;BME280;40208;39.778;2.710;2023-04-26T01:03:38;101152.03;;;17.48;100.00
54308;BME280;40208;39.778;2.710;2023-04-26T01:06:34;101149.78;;;17.54;100.00
54308;BME280;40208;39.778;2.710;2023-04-26T01:09:21;101162.44;;;17.65;100.00
54308;BME280;40208;39.778;2.710;2023-04-26T01:12:07;101051.69;;;16.85;100.00
54308;BME280;40208;39.778;2.710;2023-04-26T01:14:53;101129.94;;;17.04;100.00
54308;BME280;40208;39.778;2.710;2023-04-26T01:17:39;101167.44;;;17.31;100.00
54308;BME280;40208;39.778;2.710;2023-04-26T01:20:24;101165.81;;;17.29;100.00
54308;BME280;40208;39.778;2.710;2023-04-26T01:23:09;101122.41;;;16.97;100.00
54308;BME280;40208;39.778;2.710;2023-04-26T01:25:55;101156.47;;;17.34;100.00
54308;BME280;40208;39.778;2.710;2023-04-26T01:28:41;101156.31;;;17.10;100.00
54308;BME280;40208;39.778;2.710;2023-04-26T01:31:26;100976.47;;;15.92;100.00
54308;BME280;40208;39.778;2.710;2023-04-26T01:34:11;101123.50;;;17.07;100.00
54308;BME280;40208;39.778;2.710;2023-04-26T01:36:56;101106.31;;;16.97;100.00
54308;BME280;40208;39.778;2.710;2023-04-26T01:39:41;101133.38;;;17.06;100.00
54308;BME280;40208;39.778;2.710;2023-04-26T01:42:31;101147.09;;;17.14;100.00
54308;BME280;40208;39.778;2.710;2023-04-26T01:45:16;101072.94;;;16.73;100.00
54308;BME280;40208;39.778;2.710;2023-04-26T01:48:01;101139.44;;;17.23;100.00
54308;BME280;40208;39.778;2.710;2023-04-26T01:50:46;101075.22;;;16.52;100.00
54308;BME280;40208;39.778;2.710;2023-04-26T01:53:31;100981.72;;;15.94;100.00
54308;BME280;40208;39.778;2.710;2023-04-26T01:56:17;101020.47;;;15.88;100.00
54308;BME280;40208;39.778;2.710;2023-04-26T01:59:02;101151.91;;;16.68;100.00
54308;BME280;40208;39.778;2.710;2023-04-26T02:01:49;101149.13;;;16.84;100.00
54308;BME280;40208;39.778;2.710;2023-04-26T02:04:34;101105.00;;;16.48;100.00
54308;BME280;40208;39.778;2.710;2023-04-26T02:07:19;100976.47;;;15.78;100.00
54308;BME280;40208;39.778;2.710;2023-04-26T02:10:04;101169.94;;;16.66;100.00
54308;BME280;40208;39.778;2.710;2023-04-26T02:12:49;101121.88;;;16.21;100.00
54308;BME280;40208;39.778;2.710;2023-04-26T02:15:35;101170.81;;;16.52;100.00
54308;BME280;40208;39.778;2.710;2023-04-26T02:18:21;101168.53;;;16.31;100.00
54308;BME280;40208;39.778;2.710;2023-04-26T02:21:10;101173.03;;;16.31;100.00
54308;BME280;40208;39.778;2.710;2023-04-26T02:24:01;101176.28;;;16.36;100.00
54308;BME280;40208;39.778;2.710;2023-04-26T02:26:46;101175.16;;;16.40;100.00
54308;BME280;40208;39.778;2.710;2023-04-26T02:29:31;101171.28;;;16.44;100.00
54308;BME280;40208;39.778;2.710;2023-04-26T02:32:16;101160.59;;;16.16;100.00
54308;BME280;40208;39.778;2.710;2023-04-26T02:35:00;101176.28;;;16.36;100.00
54308;BME280;40208;39.778;2.710;2023-04-26T02:37:46;101057.44;;;15.67;100.00
54308;BME280;40208;39.778;2.710;2023-04-26T02:40:35;101149.31;;;16.10;100.00
54308;BME280;40208;39.778;2.710;2023-04-26T02:43:20;101177.91;;;16.24;100.00
54308;BME280;40208;39.778;2.710;2023-04-26T02:46:06;101174.31;;;16.25;100.00
54308;BME280;40208;39.778;2.710;2023-04-26T02:48:51;100852.16;;;14.40;100.00
54308;BME280;40208;39.778;2.710;2023-04-26T02:51:36;101108.78;;;15.88;100.00
54308;BME280;40208;39.778;2.710;2023-04-26T02:54:21;101082.91;;;15.58;100.00
54308;BME280;40208;39.778;2.710;2023-04-26T02:57:07;101172.34;;;16.27;100.00
54308;BME280;40208;39.778;2.710;2023-04-26T02:59:53;101159.09;;;16.11;100.00
54308;BME280;40208;39.778;2.710;2023-04-26T03:02:39;101040.38;;;15.25;100.00
54308;BME280;40208;39.778;2.710;2023-04-26T03:05:24;101154.03;;;16.07;100.00
54308;BME280;40208;39.778;2.710;2023-04-26T03:08:09;101134.09;;;16.11;100.00
54308;BME280;40208;39.778;2.710;2023-04-26T03:10:55;101033.06;;;15.57;100.00
54308;BME280;40208;39.778;2.710;2023-04-26T03:13:39;101155.84;;;16.21;100.00
54308;BME280;40208;39.778;2.710;2023-04-26T03:16:26;101031.22;;;15.43;100.00
54308;BME280;40208;39.778;2.710;2023-04-26T03:19:12;101165.09;;;16.15;100.00
54308;BME280;40208;39.778;2.710;2023-04-26T03:21:58;101085.34;;;15.77;100.00
54308;BME280;40208;39.778;2.710;2023-04-26T03:24:42;101169.41;;;16.32;100.00
54308;BME280;40208;39.778;2.710;2023-04-26T03:27:27;101167.66;;;16.60;100.00
54308;BME280;40208;39.778;2.710;2023-04-26T03:30:12;100965.41;;;15.26;100.00
54308;BME280;40208;39.778;2.710;2023-04-26T03:32:58;101121.59;;;16.11;100.00
54308;BME280;40208;39.778;2.710;2023-04-26T03:35:43;101053.34;;;15.76;100.00
54308;BME280;40208;39.778;2.710;2023-04-26T03:38:27;100935.72;;;15.02;100.00
54308;BME280;40208;39.778;2.710;2023-04-26T03:41:12;101164.63;;;16.51;100.00
54308;BME280;40208;39.778;2.710;2023-04-26T03:43:57;101080.00;;;15.92;100.00
54308;BME280;40208;39.778;2.710;2023-04-26T03:46:42;101165.38;;;16.25;100.00
54308;BME280;40208;39.778;2.710;2023-04-26T03:49:27;101076.38;;;15.78;100.00
54308;BME280;40208;39.778;2.710;2023-04-26T03:52:12;101172.66;;;16.23;100.00
54308;BME280;40208;39.778;2.710;2023-04-26T03:54:58;101096.91;;;15.92;100.00
54308;BME280;40208;39.778;2.710;2023-04-26T03:57:47;101171.88;;;16.49;100.00
54308;BME280;40208;39.778;2.710;2023-04-26T04:00:35;101097.31;;;15.86;100.00
54308;BME280;40208;39.778;2.710;2023-04-26T04:03:26;101132.19;;;16.13;100.00
54308;BME280;40208;39.778;2.710;2023-04-26T04:06:14;101128.09;;;16.07;100.00
54308;BME280;40208;39.778;2.710;2023-04-26T04:09:00;101179.81;;;16.51;100.00
54308;BME280;40208;39.778;2.710;2023-04-26T04:11:45;101178.59;;;16.42;100.00
54308;BME280;40208;39.778;2.710;2023-04-26T04:14:30;101183.25;;;16.39;100.00
54308;BME280;40208;39.778;2.710;2023-04-26T04:17:15;101181.06;;;16.31;100.00
54308;BME280;40208;39.778;2.710;2023-04-26T04:20:01;101182.78;;;16.18;100.00
54308;BME280;40208;39.778;2.710;2023-04-26T04:22:48;101147.31;;;16.00;100.00
54308;BME280;40208;39.778;2.710;2023-04-26T04:25:33;101184.69;;;16.01;100.00
54308;BME280;40208;39.778;2.710;2023-04-26T04:28:20;101184.13;;;15.96;100.00
54308;BME280;40208;39.778;2.710;2023-04-26T04:31:07;101178.88;;;15.95;100.00
54308;BME280;40208;39.778;2.710;2023-04-26T04:33:54;101191.88;;;16.01;100.00
54308;BME280;40208;39.778;2.710;2023-04-26T04:36:39;101142.28;;;15.65;100.00
54308;BME280;40208;39.778;2.710;2023-04-26T04:39:24;101154.84;;;15.79;100.00
54308;BME280;40208;39.778;2.710;2023-04-26T04:42:10;101034.34;;;15.07;100.00
54308;BME280;40208;39.778;2.710;2023-04-26T04:44:56;101169.88;;;15.81;100.00
54308;BME280;40208;39.778;2.710;2023-04-26T04:47:43;101178.28;;;16.04;100.00
54308;BME280;40208;39.778;2.710;2023-04-26T04:50:28;101046.47;;;15.13;100.00
54308;BME280;40208;39.778;2.710;2023-04-26T04:53:16;101153.66;;;15.68;100.00
54308;BME280;40208;39.778;2.710;2023-04-26T04:56:01;101021.38;;;14.85;100.00
54308;BME280;40208;39.778;2.710;2023-04-26T04:58:46;101078.75;;;15.10;100.00
54308;BME280;40208;39.778;2.710;2023-04-26T05:01:31;101091.28;;;14.93;100.00
54308;BME280;40208;39.778;2.710;2023-04-26T05:04:17;101091.28;;;14.93;100.00
54308;BME280;40208;39.778;2.710;2023-04-26T05:07:02;101186.59;;;15.55;100.00
54308;BME280;40208;39.778;2.710;2023-04-26T05:09:47;101087.59;;;15.10;100.00
54308;BME280;40208;39.778;2.710;2023-04-26T05:12:31;101223.88;;;15.88;100.00
54308;BME280;40208;39.778;2.710;2023-04-26T05:15:17;101195.94;;;15.78;100.00
54308;BME280;40208;39.778;2.710;2023-04-26T05:18:02;101234.44;;;15.75;100.00
54308;BME280;40208;39.778;2.710;2023-04-26T05:20:47;101069.88;;;14.63;100.00
54308;BME280;40208;39.778;2.710;2023-04-26T05:23:32;101171.91;;;15.32;100.00
54308;BME280;40208;39.778;2.710;2023-04-26T05:26:19;101150.13;;;15.23;100.00
54308;BME280;40208;39.778;2.710;2023-04-26T05:29:04;101086.16;;;14.74;100.00
54308;BME280;40208;39.778;2.710;2023-04-26T05:31:49;101252.75;;;15.67;100.00
54308;BME280;40208;39.778;2.710;2023-04-26T05:34:33;101159.53;;;14.99;100.00
54308;BME280;40208;39.778;2.710;2023-04-26T05:37:18;101280.56;;;15.48;100.00
54308;BME280;40208;39.778;2.710;2023-04-26T05:40:03;101259.19;;;15.48;100.00
54308;BME280;40208;39.778;2.710;2023-04-26T05:42:49;101279.44;;;15.68;100.00
54308;BME280;40208;39.778;2.710;2023-04-26T05:45:34;101271.69;;;15.48;100.00
54308;BME280;40208;39.778;2.710;2023-04-26T05:48:23;101287.81;;;15.62;100.00
54308;BME280;40208;39.778;2.710;2023-04-26T05:51:08;101290.16;;;15.53;100.00
54308;BME280;40208;39.778;2.710;2023-04-26T05:53:53;101247.31;;;15.22;100.00
54308;BME280;40208;39.778;2.710;2023-04-26T05:56:38;101205.56;;;15.04;100.00
54308;BME280;40208;39.778;2.710;2023-04-26T05:59:22;101142.91;;;14.78;100.00
54308;BME280;40208;39.778;2.710;2023-04-26T06:02:07;101261.47;;;15.24;100.00
54308;BME280;40208;39.778;2.710;2023-04-26T06:04:52;101152.75;;;14.77;100.00
54308;BME280;40208;39.778;2.710;2023-04-26T06:07:38;101265.56;;;15.46;100.00
54308;BME280;40208;39.778;2.710;2023-04-26T06:10:22;101010.25;;;13.83;100.00
54308;BME280;40208;39.778;2.710;2023-04-26T06:13:07;101161.47;;;14.81;100.00
54308;BME280;40208;39.778;2.710;2023-04-26T06:15:52;101322.81;;;15.89;100.00
54308;BME280;40208;39.778;2.710;2023-04-26T06:18:37;101170.16;;;15.00;100.00
54308;BME280;40208;39.778;2.710;2023-04-26T06:21:22;101277.63;;;15.69;100.00
54308;BME280;40208;39.778;2.710;2023-04-26T06:24:07;101351.94;;;16.26;100.00
54308;BME280;40208;39.778;2.710;2023-04-26T06:26:52;101346.97;;;16.34;100.00
54308;BME280;40208;39.778;2.710;2023-04-26T06:29:36;101318.16;;;16.23;100.00
54308;BME280;40208;39.778;2.710;2023-04-26T06:32:21;101214.72;;;15.62;100.00
54308;BME280;40208;39.778;2.710;2023-04-26T06:35:06;101277.28;;;16.05;100.00
54308;BME280;40208;39.778;2.710;2023-04-26T06:37:53;101377.16;;;16.66;100.00
54308;BME280;40208;39.778;2.710;2023-04-26T06:40:37;101365.75;;;16.63;100.00
54308;BME280;40208;39.778;2.710;2023-04-26T06:43:22;101325.38;;;16.51;100.00
54308;BME280;40208;39.778;2.710;2023-04-26T06:46:07;101276.53;;;16.32;100.00
54308;BME280;40208;39.778;2.710;2023-04-26T06:48:55;101372.34;;;17.02;100.00
54308;BME280;40208;39.778;2.710;2023-04-26T06:51:40;101329.59;;;16.84;100.00
54308;BME280;40208;39.778;2.710;2023-04-26T06:54:29;101323.97;;;16.89;100.00
54308;BME280;40208;39.778;2.710;2023-04-26T06:57:14;101356.81;;;17.07;100.00
54308;BME280;40208;39.778;2.710;2023-04-26T06:59:59;101266.88;;;16.58;100.00
54308;BME280;40208;39.778;2.710;2023-04-26T07:02:44;101360.91;;;17.27;100.00
54308;BME280;40208;39.778;2.710;2023-04-26T07:05:29;101389.25;;;17.45;100.00
54308;BME280;40208;39.778;2.710;2023-04-26T07:08:14;101388.72;;;17.53;100.00
54308;BME280;40208;39.778;2.710;2023-04-26T07:10:59;101388.13;;;17.62;100.00
54308;BME280;40208;39.778;2.710;2023-04-26T07:13:44;101360.41;;;17.49;100.00
54308;BME280;40208;39.778;2.710;2023-04-26T07:16:29;101374.34;;;17.68;100.00
54308;BME280;40208;39.778;2.710;2023-04-26T07:19:13;101402.47;;;17.90;100.00
54308;BME280;40208;39.778;2.710;2023-04-26T07:21:58;101404.44;;;18.00;100.00
54308;BME280;40208;39.778;2.710;2023-04-26T07:24:44;101343.94;;;17.68;100.00
54308;BME280;40208;39.778;2.710;2023-04-26T07:27:29;101408.81;;;18.16;100.00
54308;BME280;40208;39.778;2.710;2023-04-26T07:30:15;101382.78;;;18.04;100.00
54308;BME280;40208;39.778;2.710;2023-04-26T07:33:00;101343.03;;;17.82;100.00
54308;BME280;40208;39.778;2.710;2023-04-26T07:35:52;101405.19;;;18.30;100.00
54308;BME280;40208;39.778;2.710;2023-04-26T07:38:39;101428.88;;;18.50;100.00
54308;BME280;40208;39.778;2.710;2023-04-26T07:41:24;101434.47;;;18.60;100.00
54308;BME280;40208;39.778;2.710;2023-04-26T07:44:15;101424.16;;;18.67;100.00
54308;BME280;40208;39.778;2.710;2023-04-26T07:47:00;101311.44;;;18.12;100.00
54308;BME280;40208;39.778;2.710;2023-04-26T07:49:45;101278.50;;;17.96;100.00
54308;BME280;40208;39.778;2.710;2023-04-26T07:52:30;101329.72;;;18.33;100.00
54308;BME280;40208;39.778;2.710;2023-04-26T07:55:15;101408.72;;;18.96;100.00
54308;BME280;40208;39.778;2.710;2023-04-26T07:58:02;101240.91;;;17.96;100.00
54308;BME280;40208;39.778;2.710;2023-04-26T08:00:47;101275.00;;;18.34;100.00
54308;BME280;40208;39.778;2.710;2023-04-26T08:03:32;101363.44;;;18.90;100.00
54308;BME280;40208;39.778;2.710;2023-04-26T08:06:17;101413.22;;;19.21;100.00
54308;BME280;40208;39.778;2.710;2023-04-26T08:09:02;101340.25;;;18.74;100.00
54308;BME280;40208;39.778;2.710;2023-04-26T08:11:49;101351.06;;;18.87;100.00
54308;BME280;40208;39.778;2.710;2023-04-26T08:14:34;101237.31;;;18.22;100.00
54308;BME280;40208;39.778;2.710;2023-04-26T08:17:19;101424.09;;;19.32;100.00
54308;BME280;40208;39.778;2.710;2023-04-26T08:20:04;101429.00;;;19.38;100.00
54308;BME280;40208;39.778;2.710;2023-04-26T08:22:57;101407.28;;;19.28;100.00
54308;BME280;40208;39.778;2.710;2023-04-26T08:25:46;101367.38;;;19.10;100.00
54308;BME280;40208;39.778;2.710;2023-04-26T08:28:31;101392.53;;;19.34;100.00
54308;BME280;40208;39.778;2.710;2023-04-26T08:31:15;101328.75;;;18.98;100.00
54308;BME280;40208;39.778;2.710;2023-04-26T08:34:07;101458.94;;;19.72;100.00
54308;BME280;40208;39.778;2.710;2023-04-26T08:36:54;101416.47;;;19.63;100.00
54308;BME280;40208;39.778;2.710;2023-04-26T08:39:39;101424.78;;;19.73;100.00
54308;BME280;40208;39.778;2.710;2023-04-26T08:42:26;101457.88;;;19.99;100.00
54308;BME280;40208;39.778;2.710;2023-04-26T08:45:11;101263.25;;;18.86;100.00
54308;BME280;40208;39.778;2.710;2023-04-26T08:48:03;101358.16;;;19.51;100.00
54308;BME280;40208;39.778;2.710;2023-04-26T08:50:53;101418.25;;;19.88;100.00
54308;BME280;40208;39.778;2.710;2023-04-26T08:53:38;101435.63;;;20.08;100.00
54308;BME280;40208;39.778;2.710;2023-04-26T08:56:24;101415.03;;;20.07;100.00
54308;BME280;40208;39.778;2.710;2023-04-26T08:59:09;101449.19;;;20.30;100.00
54308;BME280;40208;39.778;2.710;2023-04-26T09:01:54;101432.97;;;20.19;100.00
54308;BME280;40208;39.778;2.710;2023-04-26T09:04:41;101450.78;;;20.33;100.00
54308;BME280;40208;39.778;2.710;2023-04-26T09:07:34;101450.09;;;20.42;100.00
54308;BME280;40208;39.778;2.710;2023-04-26T09:10:23;101455.03;;;20.48;100.00
54308;BME280;40208;39.778;2.710;2023-04-26T09:13:08;101465.94;;;20.47;100.00
54308;BME280;40208;39.778;2.710;2023-04-26T09:15:53;101457.00;;;20.46;100.00
54308;BME280;40208;39.778;2.710;2023-04-26T09:18:48;101456.63;;;20.51;100.00
54308;BME280;40208;39.778;2.710;2023-04-26T09:21:44;101462.03;;;20.51;100.00
54308;BME280;40208;39.778;2.710;2023-04-26T09:24:50;101453.31;;;20.47;100.00
54308;BME280;40208;39.778;2.710;2023-04-26T09:27:40;101468.97;;;20.66;100.00
54308;BME280;40208;39.778;2.710;2023-04-26T09:30:27;101464.97;;;20.72;100.00
54308;BME280;40208;39.778;2.710;2023-04-26T09:33:12;101121.75;;;18.72;100.00
54308;BME280;40208;39.778;2.710;2023-04-26T09:36:10;101475.41;;;20.88;100.00
54308;BME280;40208;39.778;2.710;2023-04-26T09:38:56;101424.22;;;20.64;100.00
54308;BME280;40208;39.778;2.710;2023-04-26T09:41:42;101375.22;;;20.34;100.00
54308;BME280;40208;39.778;2.710;2023-04-26T09:44:30;101374.34;;;20.45;100.00
54308;BME280;40208;39.778;2.710;2023-04-26T09:47:15;101136.13;;;19.08;100.00
54308;BME280;40208;39.778;2.710;2023-04-26T09:50:00;101456.56;;;21.10;100.00
54308;BME280;40208;39.778;2.710;2023-04-26T09:52:45;101144.47;;;19.16;100.00
54308;BME280;40208;39.778;2.710;2023-04-26T09:55:30;101474.88;;;21.29;100.00
54308;BME280;40208;39.778;2.710;2023-04-26T09:58:16;101322.88;;;20.37;100.00
54308;BME280;40208;39.778;2.710;2023-04-26T10:01:03;101476.47;;;21.32;100.00
54308;BME280;40208;39.778;2.710;2023-04-26T10:03:49;101405.78;;;20.93;100.00
54308;BME280;40208;39.778;2.710;2023-04-26T10:06:36;101472.53;;;21.36;100.00
54308;BME280;40208;39.778;2.710;2023-04-26T10:09:21;101474.75;;;21.42;100.00
54308;BME280;40208;39.778;2.710;2023-04-26T10:12:12;101421.09;;;21.15;100.00
54308;BME280;40208;39.778;2.710;2023-04-26T10:14:56;101473.53;;;21.57;100.00
54308;BME280;40208;39.778;2.710;2023-04-26T10:17:41;101416.09;;;21.22;100.00
54308;BME280;40208;39.778;2.710;2023-04-26T10:20:27;101420.97;;;21.28;100.00
54308;BME280;40208;39.778;2.710;2023-04-26T10:23:18;101431.56;;;21.42;100.00
54308;BME280;40208;39.778;2.710;2023-04-26T10:26:04;101450.94;;;21.58;100.00
54308;BME280;40208;39.778;2.710;2023-04-26T10:35:09;101380.00;;;21.23;100.00
54308;BME280;40208;39.778;2.710;2023-04-26T10:40:49;101299.53;;;20.94;100.00
54308;BME280;40208;39.778;2.710;2023-04-26T10:43:34;101469.56;;;21.95;100.00
54308;BME280;40208;39.778;2.710;2023-04-26T10:46:39;101459.97;;;21.91;100.00
54308;BME280;40208;39.778;2.710;2023-04-26T10:49:26;101316.34;;;20.98;100.00
54308;BME280;40208;39.778;2.710;2023-04-26T10:52:16;101401.38;;;21.48;100.00
54308;BME280;40208;39.778;2.710;2023-04-26T10:55:03;101457.75;;;21.96;100.00
54308;BME280;40208;39.778;2.710;2023-04-26T10:57:52;101413.97;;;21.70;100.00
54308;BME280;40208;39.778;2.710;2023-04-26T11:00:38;101350.69;;;21.41;100.00
54308;BME280;40208;39.778;2.710;2023-04-26T11:03:23;101369.06;;;21.47;100.00
54308;BME280;40208;39.778;2.710;2023-04-26T11:06:09;101462.88;;;22.11;100.00
54308;BME280;40208;39.778;2.710;2023-04-26T11:08:59;101446.66;;;22.22;100.00
54308;BME280;40208;39.778;2.710;2023-04-26T11:11:50;101440.59;;;22.30;100.00
54308;BME280;40208;39.778;2.710;2023-04-26T11:14:37;101450.81;;;22.26;100.00
54308;BME280;40208;39.778;2.710;2023-04-26T11:17:22;101360.75;;;21.82;100.00
54308;BME280;40208;39.778;2.710;2023-04-26T11:20:15;101444.03;;;22.32;100.00
54308;BME280;40208;39.778;2.710;2023-04-26T11:23:00;101436.78;;;22.32;100.00
54308;BME280;40208;39.778;2.710;2023-04-26T11:25:46;101430.13;;;22.36;100.00
54308;BME280;40208;39.778;2.710;2023-04-26T11:28:32;101436.84;;;22.42;100.00
54308;BME280;40208;39.778;2.710;2023-04-26T11:31:17;101430.81;;;22.50;100.00
54308;BME280;40208;39.778;2.710;2023-04-26T11:34:05;101337.53;;;22.12;100.00
54308;BME280;40208;39.778;2.710;2023-04-26T11:36:50;101384.81;;;22.50;100.00
54308;BME280;40208;39.778;2.710;2023-04-26T11:39:36;101428.75;;;22.63;100.00
54308;BME280;40208;39.778;2.710;2023-04-26T11:42:24;101420.38;;;22.66;100.00
54308;BME280;40208;39.778;2.710;2023-04-26T11:45:11;101427.22;;;22.70;100.00
54308;BME280;40208;39.778;2.710;2023-04-26T11:47:56;101373.66;;;22.43;100.00
54308;BME280;40208;39.778;2.710;2023-04-26T11:50:41;101421.47;;;22.63;100.00
54308;BME280;40208;39.778;2.710;2023-04-26T11:53:40;101282.94;;;21.76;100.00
54308;BME280;40208;39.778;2.710;2023-04-26T11:56:26;101401.28;;;22.47;100.00
54308;BME280;40208;39.778;2.710;2023-04-26T11:59:10;101180.50;;;21.20;100.00
54308;BME280;40208;39.778;2.710;2023-04-26T12:01:56;101411.47;;;22.54;100.00
54308;BME280;40208;39.778;2.710;2023-04-26T12:04:41;101314.69;;;21.84;100.00
54308;BME280;40208;39.778;2.710;2023-04-26T12:07:33;101139.88;;;20.89;100.00
54308;BME280;40208;39.778;2.710;2023-04-26T12:10:24;101333.97;;;22.11;100.00
54308;BME280;40208;39.778;2.710;2023-04-26T12:13:12;101424.00;;;22.55;100.00
54308;BME280;40208;39.778;2.710;2023-04-26T12:15:57;101406.63;;;22.58;100.00
54308;BME280;40208;39.778;2.710;2023-04-26T12:18:49;101406.63;;;22.58;100.00
54308;BME280;40208;39.778;2.710;2023-04-26T12:21:41;101364.78;;;22.20;100.00
54308;BME280;40208;39.778;2.710;2023-04-26T12:24:30;101269.91;;;21.70;100.00
54308;BME280;40208;39.778;2.710;2023-04-26T12:27:20;101399.13;;;22.40;100.00
54308;BME280;40208;39.778;2.710;2023-04-26T12:30:07;101126.13;;;20.81;100.00
54308;BME280;40208;39.778;2.710;2023-04-26T12:32:52;101421.75;;;22.60;100.00
54308;BME280;40208;39.778;2.710;2023-04-26T12:35:37;101415.09;;;22.64;100.00
54308;BME280;40208;39.778;2.710;2023-04-26T12:38:22;101412.38;;;22.64;100.00
54308;BME280;40208;39.778;2.710;2023-04-26T12:41:07;101396.50;;;22.50;100.00
54308;BME280;40208;39.778;2.710;2023-04-26T12:43:52;101399.31;;;22.49;100.00
54308;BME280;40208;39.778;2.710;2023-04-26T12:46:37;101361.34;;;22.18;100.00
54308;BME280;40208;39.778;2.710;2023-04-26T12:49:22;101398.13;;;22.41;100.00
54308;BME280;40208;39.778;2.710;2023-04-26T12:52:07;101409.94;;;22.40;100.00
54308;BME280;40208;39.778;2.710;2023-04-26T12:54:52;101369.72;;;22.15;100.00
54308;BME280;40208;39.778;2.710;2023-04-26T12:57:38;101341.88;;;22.03;100.00
54308;BME280;40208;39.778;2.710;2023-04-26T13:00:23;101395.34;;;22.32;100.00
54308;BME280;40208;39.778;2.710;2023-04-26T13:03:09;101419.25;;;22.48;100.00
54308;BME280;40208;39.778;2.710;2023-04-26T13:05:57;101415.75;;;22.36;100.00
54308;BME280;40208;39.778;2.710;2023-04-26T13:08:43;101118.56;;;20.52;100.00
54308;BME280;40208;39.778;2.710;2023-04-26T13:11:28;101419.84;;;22.19;100.00
54308;BME280;40208;39.778;2.710;2023-04-26T13:14:13;101353.03;;;21.77;100.00
54308;BME280;40208;39.778;2.710;2023-04-26T13:17:01;101367.34;;;21.89;100.00
54308;BME280;40208;39.778;2.710;2023-04-26T13:19:48;101415.78;;;22.13;100.00
54308;BME280;40208;39.778;2.710;2023-04-26T13:22:32;101415.69;;;22.15;100.00
54308;BME280;40208;39.778;2.710;2023-04-26T13:25:18;101343.94;;;21.78;100.00
54308;BME280;40208;39.778;2.710;2023-04-26T13:28:03;101376.91;;;22.05;100.00
54308;BME280;40208;39.778;2.710;2023-04-26T13:30:48;101379.22;;;22.09;100.00
54308;BME280;40208;39.778;2.710;2023-04-26T13:33:33;101266.22;;;21.38;100.00
54308;BME280;40208;39.778;2.710;2023-04-26T13:36:18;101385.94;;;22.15;100.00
54308;BME280;40208;39.778;2.710;2023-04-26T13:39:02;101238.88;;;21.21;100.00
54308;BME280;40208;39.778;2.710;2023-04-26T13:41:48;101275.41;;;21.47;100.00
54308;BME280;40208;39.778;2.710;2023-04-26T13:44:33;101352.16;;;21.88;100.00
54308;BME280;40208;39.778;2.710;2023-04-26T13:47:18;101403.97;;;22.26;100.00
54308;BME280;40208;39.778;2.710;2023-04-26T13:50:03;101372.94;;;22.09;100.00
54308;BME280;40208;39.778;2.710;2023-04-26T13:52:48;101404.38;;;22.21;100.00
54308;BME280;40208;39.778;2.710;2023-04-26T13:55:34;101258.34;;;21.47;100.00
54308;BME280;40208;39.778;2.710;2023-04-26T13:58:19;101404.19;;;22.34;100.00
54308;BME280;40208;39.778;2.710;2023-04-26T14:01:10;101397.94;;;22.33;100.00
54308;BME280;40208;39.778;2.710;2023-04-26T14:03:55;101392.91;;;22.29;100.00
54308;BME280;40208;39.778;2.710;2023-04-26T14:06:40;101383.22;;;22.26;100.00
54308;BME280;40208;39.778;2.710;2023-04-26T14:09:25;101324.47;;;21.96;100.00
54308;BME280;40208;39.778;2.710;2023-04-26T14:12:10;101399.06;;;22.31;100.00
54308;BME280;40208;39.778;2.710;2023-04-26T14:15:01;101358.81;;;22.05;100.00
54308;BME280;40208;39.778;2.710;2023-04-26T14:17:49;101391.56;;;22.23;100.00
54308;BME280;40208;39.778;2.710;2023-04-26T14:20:34;101379.97;;;22.32;100.00
54308;BME280;40208;39.778;2.710;2023-04-26T14:23:20;101353.38;;;22.16;100.00
54308;BME280;40208;39.778;2.710;2023-04-26T14:26:05;101366.44;;;22.32;100.00